sensor_id;sensor_type;location;lat;lon;timestamp;temperature;humidity
31074;DHT22;17730;53.552;9.940;2022-08-23T00:01:38;20.00;99.90
31074;DHT22;17730;53.552;9.940;2022-08-23T00:04:14;20.00;99.90
31074;DHT22;17730;53.552;9.940;2022-08-23T00:06:40;20.00;99.90
31074;DHT22;17730;53.552;9.940;2022-08-23T00:09:06;19.90;99.90
31074;DHT22;17730;53.552;9.940;2022-08-23T00:12:18;20.00;99.90
31074;DHT22;17730;53.552;9.940;2022-08-23T00:14:37;19.90;99.90
31074;DHT22;17730;53.552;9.940;2022-08-23T00:17:05;19.90;99.90
31074;DHT22;17730;53.552;9.940;2022-08-23T00:19:31;19.90;99.90
31074;DHT22;17730;53.552;9.940;2022-08-23T00:21:57;19.90;99.90
31074;DHT22;17730;53.552;9.940;2022-08-23T00:24:23;19.90;99.90
31074;DHT22;17730;53.552;9.940;2022-08-23T00:29:35;19.90;99.90
31074;DHT22;17730;53.552;9.940;2022-08-23T00:32:03;19.90;99.90
31074;DHT22;17730;53.552;9.940;2022-08-23T00:34:29;19.80;99.90
31074;DHT22;17730;53.552;9.940;2022-08-23T00:36:56;19.80;99.90
31074;DHT22;17730;53.552;9.940;2022-08-23T00:39:22;19.80;99.90
31074;DHT22;17730;53.552;9.940;2022-08-23T00:41:49;19.80;99.90
31074;DHT22;17730;53.552;9.940;2022-08-23T00:44:28;19.80;99.90
31074;DHT22;17730;53.552;9.940;2022-08-23T00:47:15;19.80;99.90
31074;DHT22;17730;53.552;9.940;2022-08-23T00:50:20;19.80;99.90
31074;DHT22;17730;53.552;9.940;2022-08-23T00:55:43;19.70;99.90
31074;DHT22;17730;53.552;9.940;2022-08-23T00:58:12;19.60;99.90
31074;DHT22;17730;53.552;9.940;2022-08-23T01:00:38;19.60;99.90
31074;DHT22;17730;53.552;9.940;2022-08-23T01:03:07;19.60;99.90
31074;DHT22;17730;53.552;9.940;2022-08-23T01:05:42;19.60;99.90
31074;DHT22;17730;53.552;9.940;2022-08-23T01:08:09;19.60;99.90
31074;DHT22;17730;53.552;9.940;2022-08-23T01:10:42;19.60;99.90
31074;DHT22;17730;53.552;9.940;2022-08-23T01:13:34;19.60;99.90
31074;DHT22;17730;53.552;9.940;2022-08-23T01:16:10;19.60;99.90
31074;DHT22;17730;53.552;9.940;2022-08-23T01:18:38;19.50;99.90
31074;DHT22;17730;53.552;9.940;2022-08-23T01:23:44;19.50;99.90
31074;DHT22;17730;53.552;9.940;2022-08-23T01:26:12;19.50;99.90
31074;DHT22;17730;53.552;9.940;2022-08-23T01:28:39;19.50;99.90
31074;DHT22;17730;53.552;9.940;2022-08-23T01:31:06;19.50;99.90
31074;DHT22;17730;53.552;9.940;2022-08-23T01:33:32;19.50;99.90
31074;DHT22;17730;53.552;9.940;2022-08-23T01:35:58;19.50;99.90
31074;DHT22;17730;53.552;9.940;2022-08-23T01:38:24;19.50;99.90
31074;DHT22;17730;53.552;9.940;2022-08-23T01:40:51;19.40;99.90
31074;DHT22;17730;53.552;9.940;2022-08-23T01:43:19;19.50;99.90
31074;DHT22;17730;53.552;9.940;2022-08-23T01:45:47;19.40;99.90
31074;DHT22;17730;53.552;9.940;2022-08-23T01:48:14;19.40;99.90
31074;DHT22;17730;53.552;9.940;2022-08-23T01:50:40;19.40;99.90
31074;DHT22;17730;53.552;9.940;2022-08-23T01:53:06;19.40;99.90
31074;DHT22;17730;53.552;9.940;2022-08-23T01:55:33;19.40;99.90
31074;DHT22;17730;53.552;9.940;2022-08-23T01:58:00;19.40;99.90
31074;DHT22;17730;53.552;9.940;2022-08-23T02:00:31;19.40;99.90
31074;DHT22;17730;53.552;9.940;2022-08-23T02:02:58;19.40;99.90
31074;DHT22;17730;53.552;9.940;2022-08-23T02:05:24;19.40;99.90
31074;DHT22;17730;53.552;9.940;2022-08-23T02:07:50;19.40;99.90
31074;DHT22;17730;53.552;9.940;2022-08-23T02:10:16;19.40;99.90
31074;DHT22;17730;53.552;9.940;2022-08-23T02:12:42;19.40;99.90
31074;DHT22;17730;53.552;9.940;2022-08-23T02:15:08;19.40;99.90
31074;DHT22;17730;53.552;9.940;2022-08-23T02:17:34;19.40;99.90
31074;DHT22;17730;53.552;9.940;2022-08-23T02:20:00;19.40;99.90
31074;DHT22;17730;53.552;9.940;2022-08-23T02:22:26;19.40;99.90
31074;DHT22;17730;53.552;9.940;2022-08-23T02:24:52;19.40;99.90
31074;DHT22;17730;53.552;9.940;2022-08-23T02:27:17;19.40;99.90
31074;DHT22;17730;53.552;9.940;2022-08-23T02:29:45;19.40;99.90
31074;DHT22;17730;53.552;9.940;2022-08-23T02:32:14;19.40;99.90
31074;DHT22;17730;53.552;9.940;2022-08-23T02:34:41;19.40;99.90
31074;DHT22;17730;53.552;9.940;2022-08-23T02:37:08;19.40;99.90
31074;DHT22;17730;53.552;9.940;2022-08-23T02:39:35;19.40;99.90
31074;DHT22;17730;53.552;9.940;2022-08-23T02:42:01;19.30;99.90
31074;DHT22;17730;53.552;9.940;2022-08-23T02:44:27;19.30;99.90
31074;DHT22;17730;53.552;9.940;2022-08-23T02:46:53;19.30;99.90
31074;DHT22;17730;53.552;9.940;2022-08-23T02:49:18;19.30;99.90
31074;DHT22;17730;53.552;9.940;2022-08-23T02:51:44;19.30;99.90
31074;DHT22;17730;53.552;9.940;2022-08-23T02:54:11;19.30;99.90
31074;DHT22;17730;53.552;9.940;2022-08-23T02:56:36;19.30;99.90
31074;DHT22;17730;53.552;9.940;2022-08-23T02:59:04;19.20;99.90
31074;DHT22;17730;53.552;9.940;2022-08-23T03:01:34;19.20;99.90
31074;DHT22;17730;53.552;9.940;2022-08-23T03:04:00;19.20;99.90
31074;DHT22;17730;53.552;9.940;2022-08-23T03:06:26;19.20;99.90
31074;DHT22;17730;53.552;9.940;2022-08-23T03:08:53;19.10;99.90
31074;DHT22;17730;53.552;9.940;2022-08-23T03:11:21;19.10;99.90
31074;DHT22;17730;53.552;9.940;2022-08-23T03:13:48;19.10;99.90
31074;DHT22;17730;53.552;9.940;2022-08-23T03:16:16;19.10;99.90
31074;DHT22;17730;53.552;9.940;2022-08-23T03:18:42;19.10;99.90
31074;DHT22;17730;53.552;9.940;2022-08-23T03:21:09;19.00;99.90
31074;DHT22;17730;53.552;9.940;2022-08-23T03:23:36;19.00;99.90
31074;DHT22;17730;53.552;9.940;2022-08-23T03:26:04;19.00;99.90
31074;DHT22;17730;53.552;9.940;2022-08-23T03:28:32;19.00;99.90
31074;DHT22;17730;53.552;9.940;2022-08-23T03:30:58;19.00;99.90
31074;DHT22;17730;53.552;9.940;2022-08-23T03:33:23;18.90;99.90
31074;DHT22;17730;53.552;9.940;2022-08-23T03:35:49;19.00;99.90
31074;DHT22;17730;53.552;9.940;2022-08-23T03:38:15;18.90;99.90
31074;DHT22;17730;53.552;9.940;2022-08-23T03:40:42;18.90;99.90
31074;DHT22;17730;53.552;9.940;2022-08-23T03:43:07;18.90;99.90
31074;DHT22;17730;53.552;9.940;2022-08-23T03:45:33;18.90;99.90
31074;DHT22;17730;53.552;9.940;2022-08-23T03:47:59;18.90;99.90
31074;DHT22;17730;53.552;9.940;2022-08-23T03:50:26;18.80;99.90
31074;DHT22;17730;53.552;9.940;2022-08-23T03:52:52;18.80;99.90
31074;DHT22;17730;53.552;9.940;2022-08-23T03:55:17;18.80;99.90
31074;DHT22;17730;53.552;9.940;2022-08-23T03:57:43;18.80;99.90
31074;DHT22;17730;53.552;9.940;2022-08-23T04:00:10;18.80;99.90
31074;DHT22;17730;53.552;9.940;2022-08-23T04:02:36;18.80;99.90
31074;DHT22;17730;53.552;9.940;2022-08-23T04:05:03;18.70;99.90
31074;DHT22;17730;53.552;9.940;2022-08-23T04:07:29;18.70;99.90
31074;DHT22;17730;53.552;9.940;2022-08-23T04:09:54;18.70;99.90
31074;DHT22;17730;53.552;9.940;2022-08-23T04:12:20;18.70;99.90
31074;DHT22;17730;53.552;9.940;2022-08-23T04:14:47;18.70;99.90
31074;DHT22;17730;53.552;9.940;2022-08-23T04:17:14;18.60;99.90
31074;DHT22;17730;53.552;9.940;2022-08-23T04:19:40;18.60;99.90
31074;DHT22;17730;53.552;9.940;2022-08-23T04:22:11;18.60;99.90
31074;DHT22;17730;53.552;9.940;2022-08-23T04:24:37;18.60;99.90
31074;DHT22;17730;53.552;9.940;2022-08-23T04:27:02;18.60;99.90
31074;DHT22;17730;53.552;9.940;2022-08-23T04:29:28;18.70;99.90
31074;DHT22;17730;53.552;9.940;2022-08-23T04:31:54;18.70;99.90
31074;DHT22;17730;53.552;9.940;2022-08-23T04:34:19;18.70;99.90
31074;DHT22;17730;53.552;9.940;2022-08-23T04:36:46;18.80;99.90
31074;DHT22;17730;53.552;9.940;2022-08-23T04:39:11;18.90;99.90
31074;DHT22;17730;53.552;9.940;2022-08-23T04:41:37;19.00;99.90
31074;DHT22;17730;53.552;9.940;2022-08-23T04:44:21;19.00;99.90
31074;DHT22;17730;53.552;9.940;2022-08-23T04:46:46;19.00;99.90
31074;DHT22;17730;53.552;9.940;2022-08-23T04:49:13;18.90;99.90
31074;DHT22;17730;53.552;9.940;2022-08-23T04:51:39;18.90;99.90
31074;DHT22;17730;53.552;9.940;2022-08-23T04:54:05;18.80;99.90
31074;DHT22;17730;53.552;9.940;2022-08-23T04:56:32;18.80;99.90
31074;DHT22;17730;53.552;9.940;2022-08-23T04:58:58;18.70;99.90
31074;DHT22;17730;53.552;9.940;2022-08-23T05:01:23;18.70;99.90
31074;DHT22;17730;53.552;9.940;2022-08-23T05:03:53;18.60;99.90
31074;DHT22;17730;53.552;9.940;2022-08-23T05:06:20;18.60;99.90
31074;DHT22;17730;53.552;9.940;2022-08-23T05:08:45;18.60;99.90
31074;DHT22;17730;53.552;9.940;2022-08-23T05:11:11;18.70;99.90
31074;DHT22;17730;53.552;9.940;2022-08-23T05:13:37;18.70;99.90
31074;DHT22;17730;53.552;9.940;2022-08-23T05:16:04;18.70;99.90
31074;DHT22;17730;53.552;9.940;2022-08-23T05:18:30;18.80;99.90
31074;DHT22;17730;53.552;9.940;2022-08-23T05:20:56;18.80;99.90
31074;DHT22;17730;53.552;9.940;2022-08-23T05:23:21;18.80;99.90
31074;DHT22;17730;53.552;9.940;2022-08-23T05:25:47;18.90;99.90
31074;DHT22;17730;53.552;9.940;2022-08-23T05:28:30;18.90;99.90
31074;DHT22;17730;53.552;9.940;2022-08-23T05:31:05;18.90;99.90
31074;DHT22;17730;53.552;9.940;2022-08-23T05:33:33;19.00;99.90
31074;DHT22;17730;53.552;9.940;2022-08-23T05:35:59;19.10;99.90
31074;DHT22;17730;53.552;9.940;2022-08-23T05:38:27;19.50;99.90
31074;DHT22;17730;53.552;9.940;2022-08-23T05:40:54;19.90;99.90
31074;DHT22;17730;53.552;9.940;2022-08-23T05:43:20;20.20;99.90
31074;DHT22;17730;53.552;9.940;2022-08-23T05:45:46;20.50;99.90
31074;DHT22;17730;53.552;9.940;2022-08-23T05:48:12;20.50;99.90
31074;DHT22;17730;53.552;9.940;2022-08-23T05:50:38;20.60;99.90
31074;DHT22;17730;53.552;9.940;2022-08-23T05:53:04;20.60;99.90
31074;DHT22;17730;53.552;9.940;2022-08-23T05:55:30;20.60;99.90
31074;DHT22;17730;53.552;9.940;2022-08-23T05:57:56;20.60;99.90
31074;DHT22;17730;53.552;9.940;2022-08-23T06:00:22;20.70;99.90
31074;DHT22;17730;53.552;9.940;2022-08-23T06:02:47;20.70;99.90
31074;DHT22;17730;53.552;9.940;2022-08-23T06:05:14;20.90;99.90
31074;DHT22;17730;53.552;9.940;2022-08-23T06:07:40;21.10;99.90
31074;DHT22;17730;53.552;9.940;2022-08-23T06:10:07;21.30;99.90
31074;DHT22;17730;53.552;9.940;2022-08-23T06:12:34;21.30;99.90
31074;DHT22;17730;53.552;9.940;2022-08-23T06:15:00;21.40;99.90
31074;DHT22;17730;53.552;9.940;2022-08-23T06:17:27;21.40;99.90
31074;DHT22;17730;53.552;9.940;2022-08-23T06:19:52;21.50;99.90
31074;DHT22;17730;53.552;9.940;2022-08-23T06:22:19;21.70;99.90
31074;DHT22;17730;53.552;9.940;2022-08-23T06:24:44;21.80;99.90
31074;DHT22;17730;53.552;9.940;2022-08-23T06:27:11;21.90;99.90
31074;DHT22;17730;53.552;9.940;2022-08-23T06:29:37;22.00;99.90
31074;DHT22;17730;53.552;9.940;2022-08-23T06:32:04;22.10;99.90
31074;DHT22;17730;53.552;9.940;2022-08-23T06:34:36;22.20;99.90
31074;DHT22;17730;53.552;9.940;2022-08-23T06:37:07;22.20;99.90
31074;DHT22;17730;53.552;9.940;2022-08-23T06:39:34;22.40;99.90
31074;DHT22;17730;53.552;9.940;2022-08-23T06:42:05;22.50;99.90
31074;DHT22;17730;53.552;9.940;2022-08-23T06:44:32;22.60;99.90
31074;DHT22;17730;53.552;9.940;2022-08-23T06:46:58;22.60;99.90
31074;DHT22;17730;53.552;9.940;2022-08-23T06:49:24;22.60;99.90
31074;DHT22;17730;53.552;9.940;2022-08-23T06:51:53;22.60;99.90
31074;DHT22;17730;53.552;9.940;2022-08-23T06:54:30;22.60;99.90
31074;DHT22;17730;53.552;9.940;2022-08-23T06:56:57;22.60;99.90
31074;DHT22;17730;53.552;9.940;2022-08-23T06:59:23;22.60;99.90
31074;DHT22;17730;53.552;9.940;2022-08-23T07:01:53;22.50;99.90
31074;DHT22;17730;53.552;9.940;2022-08-23T07:04:25;22.50;99.90
31074;DHT22;17730;53.552;9.940;2022-08-23T07:06:51;22.50;99.90
31074;DHT22;17730;53.552;9.940;2022-08-23T07:09:17;22.60;99.90
31074;DHT22;17730;53.552;9.940;2022-08-23T07:11:43;22.70;99.90
31074;DHT22;17730;53.552;9.940;2022-08-23T07:14:11;22.80;99.90
31074;DHT22;17730;53.552;9.940;2022-08-23T07:16:43;22.80;99.90
31074;DHT22;17730;53.552;9.940;2022-08-23T07:19:09;22.90;99.90
31074;DHT22;17730;53.552;9.940;2022-08-23T07:21:36;23.00;99.90
31074;DHT22;17730;53.552;9.940;2022-08-23T07:24:02;23.00;99.90
31074;DHT22;17730;53.552;9.940;2022-08-23T07:26:29;23.00;99.90
31074;DHT22;17730;53.552;9.940;2022-08-23T07:28:55;23.00;99.90
31074;DHT22;17730;53.552;9.940;2022-08-23T07:31:28;23.10;99.90
31074;DHT22;17730;53.552;9.940;2022-08-23T07:34:00;23.10;99.90
31074;DHT22;17730;53.552;9.940;2022-08-23T07:36:27;23.10;99.90
31074;DHT22;17730;53.552;9.940;2022-08-23T07:38:53;23.10;99.90
31074;DHT22;17730;53.552;9.940;2022-08-23T07:41:22;23.20;99.90
31074;DHT22;17730;53.552;9.940;2022-08-23T07:43:48;23.20;99.90
31074;DHT22;17730;53.552;9.940;2022-08-23T07:46:14;23.20;99.90
31074;DHT22;17730;53.552;9.940;2022-08-23T07:48:40;23.30;99.80
31074;DHT22;17730;53.552;9.940;2022-08-23T07:51:09;23.40;99.70
31074;DHT22;17730;53.552;9.940;2022-08-23T07:53:35;23.50;99.70
31074;DHT22;17730;53.552;9.940;2022-08-23T07:56:12;23.60;99.60
31074;DHT22;17730;53.552;9.940;2022-08-23T07:58:39;23.70;99.50
31074;DHT22;17730;53.552;9.940;2022-08-23T08:01:16;23.70;99.20
31074;DHT22;17730;53.552;9.940;2022-08-23T08:03:43;23.80;99.00
31074;DHT22;17730;53.552;9.940;2022-08-23T08:06:11;23.80;98.70
31074;DHT22;17730;53.552;9.940;2022-08-23T08:08:39;23.80;98.70
31074;DHT22;17730;53.552;9.940;2022-08-23T08:11:09;23.70;98.60
31074;DHT22;17730;53.552;9.940;2022-08-23T08:13:40;23.70;98.40
31074;DHT22;17730;53.552;9.940;2022-08-23T08:16:07;23.80;98.30
31074;DHT22;17730;53.552;9.940;2022-08-23T08:18:36;24.00;98.20
31074;DHT22;17730;53.552;9.940;2022-08-23T08:21:03;24.00;98.20
31074;DHT22;17730;53.552;9.940;2022-08-23T08:23:29;24.10;97.70
31074;DHT22;17730;53.552;9.940;2022-08-23T08:26:04;24.20;97.30
31074;DHT22;17730;53.552;9.940;2022-08-23T08:28:31;24.30;96.60
31074;DHT22;17730;53.552;9.940;2022-08-23T08:30:57;24.30;96.40
31074;DHT22;17730;53.552;9.940;2022-08-23T08:33:24;24.40;96.30
31074;DHT22;17730;53.552;9.940;2022-08-23T08:35:50;24.50;96.30
31074;DHT22;17730;53.552;9.940;2022-08-23T08:38:16;24.50;95.90
31074;DHT22;17730;53.552;9.940;2022-08-23T08:40:42;24.40;95.90
31074;DHT22;17730;53.552;9.940;2022-08-23T08:48:24;24.50;95.90
31074;DHT22;17730;53.552;9.940;2022-08-23T08:51:03;24.50;96.00
31074;DHT22;17730;53.552;9.940;2022-08-23T08:53:35;24.50;96.00
31074;DHT22;17730;53.552;9.940;2022-08-23T08:56:17;24.50;96.10
31074;DHT22;17730;53.552;9.940;2022-08-23T08:58:49;24.50;96.20
31074;DHT22;17730;53.552;9.940;2022-08-23T09:01:19;24.60;96.20
31074;DHT22;17730;53.552;9.940;2022-08-23T09:03:46;24.60;96.20
31074;DHT22;17730;53.552;9.940;2022-08-23T09:15:26;25.10;95.90
31074;DHT22;17730;53.552;9.940;2022-08-23T09:17:50;25.20;95.90
31074;DHT22;17730;53.552;9.940;2022-08-23T09:20:18;25.30;95.70
31074;DHT22;17730;53.552;9.940;2022-08-23T09:22:49;25.20;95.60
31074;DHT22;17730;53.552;9.940;2022-08-23T09:25:17;25.20;95.70
31074;DHT22;17730;53.552;9.940;2022-08-23T09:27:44;25.30;95.80
31074;DHT22;17730;53.552;9.940;2022-08-23T09:30:12;25.40;95.60
31074;DHT22;17730;53.552;9.940;2022-08-23T09:32:41;25.40;95.70
31074;DHT22;17730;53.552;9.940;2022-08-23T09:35:15;25.40;95.60
31074;DHT22;17730;53.552;9.940;2022-08-23T09:38:14;25.40;95.50
31074;DHT22;17730;53.552;9.940;2022-08-23T09:40:45;25.30;95.20
31074;DHT22;17730;53.552;9.940;2022-08-23T09:43:16;25.50;95.00
31074;DHT22;17730;53.552;9.940;2022-08-23T09:48:36;25.70;94.90
31074;DHT22;17730;53.552;9.940;2022-08-23T09:53:45;25.80;94.70
31074;DHT22;17730;53.552;9.940;2022-08-23T09:56:16;25.80;94.60
31074;DHT22;17730;53.552;9.940;2022-08-23T09:58:45;25.80;94.50
31074;DHT22;17730;53.552;9.940;2022-08-23T10:01:32;25.90;94.40
31074;DHT22;17730;53.552;9.940;2022-08-23T10:04:21;26.00;94.20
31074;DHT22;17730;53.552;9.940;2022-08-23T10:06:47;26.10;94.10
31074;DHT22;17730;53.552;9.940;2022-08-23T10:09:31;26.20;93.90
31074;DHT22;17730;53.552;9.940;2022-08-23T10:11:58;26.20;93.60
31074;DHT22;17730;53.552;9.940;2022-08-23T10:14:25;26.10;93.60
31074;DHT22;17730;53.552;9.940;2022-08-23T10:22:19;26.10;93.40
31074;DHT22;17730;53.552;9.940;2022-08-23T10:27:43;26.20;93.40
31074;DHT22;17730;53.552;9.940;2022-08-23T10:33:29;26.20;93.70
31074;DHT22;17730;53.552;9.940;2022-08-23T10:36:16;26.20;93.40
31074;DHT22;17730;53.552;9.940;2022-08-23T10:47:09;26.60;92.60
31074;DHT22;17730;53.552;9.940;2022-08-23T10:49:40;26.60;92.70
31074;DHT22;17730;53.552;9.940;2022-08-23T10:52:11;26.80;92.50
31074;DHT22;17730;53.552;9.940;2022-08-23T10:54:45;26.90;92.30
31074;DHT22;17730;53.552;9.940;2022-08-23T10:57:30;27.10;91.40
31074;DHT22;17730;53.552;9.940;2022-08-23T10:59:57;27.00;91.00
31074;DHT22;17730;53.552;9.940;2022-08-23T11:05:23;27.10;91.00
31074;DHT22;17730;53.552;9.940;2022-08-23T11:16:05;27.10;89.00
31074;DHT22;17730;53.552;9.940;2022-08-23T11:18:43;27.10;88.90
31074;DHT22;17730;53.552;9.940;2022-08-23T11:23:52;27.30;89.10
31074;DHT22;17730;53.552;9.940;2022-08-23T11:28:48;27.40;88.20
31074;DHT22;17730;53.552;9.940;2022-08-23T11:31:22;27.50;88.10
31074;DHT22;17730;53.552;9.940;2022-08-23T11:33:58;27.60;86.90
31074;DHT22;17730;53.552;9.940;2022-08-23T11:36:25;27.70;85.20
31074;DHT22;17730;53.552;9.940;2022-08-23T11:41:28;27.70;86.50
31074;DHT22;17730;53.552;9.940;2022-08-23T11:46:29;27.80;86.50
31074;DHT22;17730;53.552;9.940;2022-08-23T11:58:10;27.60;85.40
31074;DHT22;17730;53.552;9.940;2022-08-23T12:09:09;27.70;83.40
31074;DHT22;17730;53.552;9.940;2022-08-23T12:17:01;27.90;80.50
31074;DHT22;17730;53.552;9.940;2022-08-23T12:19:38;28.00;79.90
31074;DHT22;17730;53.552;9.940;2022-08-23T12:22:10;27.90;77.80
31074;DHT22;17730;53.552;9.940;2022-08-23T12:24:43;27.80;77.20
31074;DHT22;17730;53.552;9.940;2022-08-23T12:27:30;27.80;76.30
31074;DHT22;17730;53.552;9.940;2022-08-23T12:30:03;27.80;76.50
31074;DHT22;17730;53.552;9.940;2022-08-23T12:33:03;27.60;77.40
31074;DHT22;17730;53.552;9.940;2022-08-23T12:40:53;27.70;76.10
31074;DHT22;17730;53.552;9.940;2022-08-23T12:43:23;27.70;76.30
31074;DHT22;17730;53.552;9.940;2022-08-23T12:46:00;27.70;76.40
31074;DHT22;17730;53.552;9.940;2022-08-23T12:48:29;27.80;75.60
31074;DHT22;17730;53.552;9.940;2022-08-23T12:51:02;27.90;75.30
31074;DHT22;17730;53.552;9.940;2022-08-23T12:53:37;27.90;74.80
31074;DHT22;17730;53.552;9.940;2022-08-23T12:56:10;28.00;74.00
31074;DHT22;17730;53.552;9.940;2022-08-23T12:58:38;28.10;74.10
31074;DHT22;17730;53.552;9.940;2022-08-23T13:01:19;28.20;73.30
31074;DHT22;17730;53.552;9.940;2022-08-23T13:03:47;28.30;72.20
31074;DHT22;17730;53.552;9.940;2022-08-23T13:06:21;28.30;72.00
31074;DHT22;17730;53.552;9.940;2022-08-23T13:08:53;28.30;71.40
31074;DHT22;17730;53.552;9.940;2022-08-23T13:11:25;28.40;70.50
31074;DHT22;17730;53.552;9.940;2022-08-23T13:13:51;28.50;69.50
31074;DHT22;17730;53.552;9.940;2022-08-23T13:19:29;28.50;66.70
31074;DHT22;17730;53.552;9.940;2022-08-23T13:24:45;28.80;67.00
31074;DHT22;17730;53.552;9.940;2022-08-23T13:27:24;29.00;67.00
31074;DHT22;17730;53.552;9.940;2022-08-23T13:29:57;29.10;66.30
31074;DHT22;17730;53.552;9.940;2022-08-23T13:32:31;29.10;65.80
31074;DHT22;17730;53.552;9.940;2022-08-23T13:43:56;28.90;64.60
31074;DHT22;17730;53.552;9.940;2022-08-23T13:46:24;28.90;63.30
31074;DHT22;17730;53.552;9.940;2022-08-23T13:51:35;28.80;62.60
31074;DHT22;17730;53.552;9.940;2022-08-23T13:54:07;28.90;62.80
31074;DHT22;17730;53.552;9.940;2022-08-23T13:56:37;28.90;62.00
31074;DHT22;17730;53.552;9.940;2022-08-23T13:59:23;28.70;61.10
31074;DHT22;17730;53.552;9.940;2022-08-23T14:01:50;28.60;61.10
31074;DHT22;17730;53.552;9.940;2022-08-23T14:04:15;28.70;60.50
31074;DHT22;17730;53.552;9.940;2022-08-23T14:06:41;28.80;60.90
31074;DHT22;17730;53.552;9.940;2022-08-23T14:09:07;28.90;61.30
31074;DHT22;17730;53.552;9.940;2022-08-23T14:11:32;29.00;61.00
31074;DHT22;17730;53.552;9.940;2022-08-23T14:13:58;28.90;60.40
31074;DHT22;17730;53.552;9.940;2022-08-23T14:16:30;28.90;60.30
31074;DHT22;17730;53.552;9.940;2022-08-23T14:18:56;28.90;60.20
31074;DHT22;17730;53.552;9.940;2022-08-23T14:21:22;28.80;59.60
31074;DHT22;17730;53.552;9.940;2022-08-23T14:23:48;28.90;59.30
31074;DHT22;17730;53.552;9.940;2022-08-23T14:26:16;29.00;58.60
31074;DHT22;17730;53.552;9.940;2022-08-23T14:28:43;29.10;58.10
31074;DHT22;17730;53.552;9.940;2022-08-23T14:31:09;29.10;57.50
31074;DHT22;17730;53.552;9.940;2022-08-23T14:33:35;29.20;57.50
31074;DHT22;17730;53.552;9.940;2022-08-23T14:36:01;29.10;58.50
31074;DHT22;17730;53.552;9.940;2022-08-23T14:38:27;29.10;58.60
31074;DHT22;17730;53.552;9.940;2022-08-23T14:40:57;29.10;59.20
31074;DHT22;17730;53.552;9.940;2022-08-23T14:43:23;29.20;58.70
31074;DHT22;17730;53.552;9.940;2022-08-23T14:45:49;29.20;59.20
31074;DHT22;17730;53.552;9.940;2022-08-23T14:48:16;29.20;59.70
31074;DHT22;17730;53.552;9.940;2022-08-23T14:50:42;29.00;59.50
31074;DHT22;17730;53.552;9.940;2022-08-23T14:53:09;28.80;59.70
31074;DHT22;17730;53.552;9.940;2022-08-23T14:55:35;28.80;59.60
31074;DHT22;17730;53.552;9.940;2022-08-23T14:58:03;28.90;59.40
31074;DHT22;17730;53.552;9.940;2022-08-23T15:00:30;29.00;58.80
31074;DHT22;17730;53.552;9.940;2022-08-23T15:02:55;29.00;58.80
31074;DHT22;17730;53.552;9.940;2022-08-23T15:05:21;29.00;59.10
31074;DHT22;17730;53.552;9.940;2022-08-23T15:07:47;28.90;58.80
31074;DHT22;17730;53.552;9.940;2022-08-23T15:10:14;28.90;58.90
31074;DHT22;17730;53.552;9.940;2022-08-23T15:12:42;28.90;58.50
31074;DHT22;17730;53.552;9.940;2022-08-23T15:15:14;29.00;58.50
31074;DHT22;17730;53.552;9.940;2022-08-23T15:17:51;29.00;58.60
31074;DHT22;17730;53.552;9.940;2022-08-23T15:20:23;29.00;58.20
31074;DHT22;17730;53.552;9.940;2022-08-23T15:22:49;29.00;58.20
31074;DHT22;17730;53.552;9.940;2022-08-23T15:25:15;29.00;57.90
31074;DHT22;17730;53.552;9.940;2022-08-23T15:27:43;29.00;58.10
31074;DHT22;17730;53.552;9.940;2022-08-23T15:30:10;28.90;58.30
31074;DHT22;17730;53.552;9.940;2022-08-23T15:32:36;29.00;58.20
31074;DHT22;17730;53.552;9.940;2022-08-23T15:35:02;28.90;58.90
31074;DHT22;17730;53.552;9.940;2022-08-23T15:37:27;28.90;58.80
31074;DHT22;17730;53.552;9.940;2022-08-23T15:39:53;28.90;58.60
31074;DHT22;17730;53.552;9.940;2022-08-23T15:42:18;29.00;58.00
31074;DHT22;17730;53.552;9.940;2022-08-23T15:44:44;29.00;57.90
31074;DHT22;17730;53.552;9.940;2022-08-23T15:47:20;29.00;58.00
31074;DHT22;17730;53.552;9.940;2022-08-23T15:49:46;29.00;57.60
31074;DHT22;17730;53.552;9.940;2022-08-23T15:52:13;28.90;57.80
31074;DHT22;17730;53.552;9.940;2022-08-23T15:54:39;29.00;57.50
31074;DHT22;17730;53.552;9.940;2022-08-23T15:57:05;28.90;57.50
31074;DHT22;17730;53.552;9.940;2022-08-23T15:59:32;28.90;57.40
31074;DHT22;17730;53.552;9.940;2022-08-23T16:02:02;28.80;57.20
31074;DHT22;17730;53.552;9.940;2022-08-23T16:04:27;28.90;57.10
31074;DHT22;17730;53.552;9.940;2022-08-23T16:06:53;28.80;57.20
31074;DHT22;17730;53.552;9.940;2022-08-23T16:09:20;28.90;57.70
31074;DHT22;17730;53.552;9.940;2022-08-23T16:11:47;28.90;57.90
31074;DHT22;17730;53.552;9.940;2022-08-23T16:14:13;29.00;57.90
31074;DHT22;17730;53.552;9.940;2022-08-23T16:16:39;28.90;57.70
31074;DHT22;17730;53.552;9.940;2022-08-23T16:19:06;29.00;57.40
31074;DHT22;17730;53.552;9.940;2022-08-23T16:21:32;29.00;57.70
31074;DHT22;17730;53.552;9.940;2022-08-23T16:23:58;29.00;56.30
31074;DHT22;17730;53.552;9.940;2022-08-23T16:26:33;28.90;56.50
31074;DHT22;17730;53.552;9.940;2022-08-23T16:29:00;28.80;56.80
31074;DHT22;17730;53.552;9.940;2022-08-23T16:31:25;28.80;56.40
31074;DHT22;17730;53.552;9.940;2022-08-23T16:33:55;28.80;56.70
31074;DHT22;17730;53.552;9.940;2022-08-23T16:36:21;28.80;56.80
31074;DHT22;17730;53.552;9.940;2022-08-23T16:38:47;28.80;57.10
31074;DHT22;17730;53.552;9.940;2022-08-23T16:41:13;28.80;57.50
31074;DHT22;17730;53.552;9.940;2022-08-23T16:43:40;29.00;57.30
31074;DHT22;17730;53.552;9.940;2022-08-23T16:46:06;29.20;57.30
31074;DHT22;17730;53.552;9.940;2022-08-23T16:48:32;29.40;56.40
31074;DHT22;17730;53.552;9.940;2022-08-23T16:50:58;29.70;55.90
31074;DHT22;17730;53.552;9.940;2022-08-23T16:53:27;30.00;55.00
31074;DHT22;17730;53.552;9.940;2022-08-23T16:55:53;30.30;54.80
31074;DHT22;17730;53.552;9.940;2022-08-23T16:58:19;30.40;53.90
31074;DHT22;17730;53.552;9.940;2022-08-23T17:00:46;30.40;53.90
31074;DHT22;17730;53.552;9.940;2022-08-23T17:03:12;30.50;53.50
31074;DHT22;17730;53.552;9.940;2022-08-23T17:05:39;30.80;53.30
31074;DHT22;17730;53.552;9.940;2022-08-23T17:08:05;31.10;52.50
31074;DHT22;17730;53.552;9.940;2022-08-23T17:10:31;31.10;52.00
31074;DHT22;17730;53.552;9.940;2022-08-23T17:12:58;31.30;51.50
31074;DHT22;17730;53.552;9.940;2022-08-23T17:15:32;31.30;51.50
31074;DHT22;17730;53.552;9.940;2022-08-23T17:17:58;31.40;51.50
31074;DHT22;17730;53.552;9.940;2022-08-23T17:20:27;31.50;51.00
31074;DHT22;17730;53.552;9.940;2022-08-23T17:22:54;31.60;50.70
31074;DHT22;17730;53.552;9.940;2022-08-23T17:25:21;31.70;50.40
31074;DHT22;17730;53.552;9.940;2022-08-23T17:27:47;31.50;50.50
31074;DHT22;17730;53.552;9.940;2022-08-23T17:30:17;31.40;50.80
31074;DHT22;17730;53.552;9.940;2022-08-23T17:32:44;31.40;50.80
31074;DHT22;17730;53.552;9.940;2022-08-23T17:35:12;31.30;50.60